Time;durP1;ratioP1;P1;durP2;ratioP2;P2;SDS_P1;SDS_P2;PMS_P1;PMS_P2;Temp;Humidity;BMP_temperature;BMP_pressure;BME280_temperature;BME280_humidity;BME280_pressure;Samples;Min_cycle;Max_cycle;Signal;HPM_P1;HPM_P2
2023/01/31 00:01:39;;;;;;;4.72;2.50;;;4.10;99.90;;;;;;4970825;28;20213;-80
2023/01/31 00:04:11;;;;;;;7.55;3.60;;;4.10;99.90;;;;;;4953355;29;20213;-80
2023/01/31 00:06:42;;;;;;;5.80;2.20;;;4.10;99.90;;;;;;4965453;28;20198;-82
2023/01/31 00:09:11;;;;;;;11.32;2.90;;;4.10;99.90;;;;;;4973400;28;20229;-81
2023/01/31 00:11:39;;;;;;;11.20;3.10;;;4.20;99.90;;;;;;4964542;28;20206;-81
2023/01/31 00:14:07;;;;;;;7.85;2.55;;;4.20;99.90;;;;;;4967410;28;20207;-83
2023/01/31 00:16:34;;;;;;;5.43;2.47;;;4.20;99.90;;;;;;4984549;28;20197;-83
2023/01/31 00:19:03;;;;;;;10.88;2.63;;;4.20;99.90;;;;;;4980042;28;20209;-80
2023/01/31 00:21:31;;;;;;;9.02;4.20;;;4.10;99.90;;;;;;4978467;28;20466;-85
2023/01/31 00:23:58;;;;;;;7.07;2.78;;;4.10;99.90;;;;;;4978067;28;20191;-83
2023/01/31 00:26:31;;;;;;;8.70;4.45;;;4.10;99.90;;;;;;4972110;29;20393;-81
2023/01/31 00:29:00;;;;;;;15.02;4.78;;;4.10;99.90;;;;;;4965247;28;20479;-81
2023/01/31 00:31:29;;;;;;;12.52;3.08;;;4.10;99.90;;;;;;4966112;29;20226;-81
2023/01/31 00:33:56;;;;;;;11.15;2.78;;;4.10;99.90;;;;;;4964582;29;20210;-81
2023/01/31 00:36:27;;;;;;;23.48;4.30;;;4.00;99.90;;;;;;4976082;28;20210;-82
2023/01/31 00:38:55;;;;;;;9.32;3.80;;;4.00;99.90;;;;;;4959925;28;20302;-83
2023/01/31 00:41:25;;;;;;;5.53;3.28;;;3.90;99.90;;;;;;4966791;28;20209;-83
2023/01/31 00:43:52;;;;;;;8.60;3.58;;;3.90;99.90;;;;;;4967337;28;20567;-85
2023/01/31 00:46:21;;;;;;;13.20;3.42;;;3.80;99.90;;;;;;4984578;28;20239;-83
2023/01/31 00:48:51;;;;;;;20.42;5.95;;;3.80;99.90;;;;;;4959959;28;20284;-83
2023/01/31 00:51:20;;;;;;;13.18;2.80;;;3.80;99.90;;;;;;4978244;28;20252;-81
2023/01/31 00:53:49;;;;;;;10.15;2.47;;;3.90;99.90;;;;;;4974421;28;20213;-83
2023/01/31 00:56:18;;;;;;;8.60;2.58;;;3.90;99.90;;;;;;4969312;28;20298;-84
2023/01/31 00:58:45;;;;;;;21.67;5.07;;;4.00;99.90;;;;;;4964719;28;20210;-85
2023/01/31 01:01:25;;;;;;;12.18;2.20;;;4.00;99.90;;;;;;4965134;28;20206;-83
2023/01/31 01:03:53;;;;;;;10.80;2.55;;;3.90;99.90;;;;;;4972893;28;20281;-83
2023/01/31 01:06:22;;;;;;;7.95;3.70;;;4.00;99.90;;;;;;4975787;28;20265;-83
2023/01/31 01:08:48;;;;;;;14.02;2.90;;;4.00;99.90;;;;;;4963760;28;20194;-83
2023/01/31 01:11:22;;;;;;;5.47;1.58;;;4.00;99.90;;;;;;4976306;28;20242;-83
2023/01/31 01:13:50;;;;;;;5.93;2.20;;;4.00;99.90;;;;;;4966932;28;20245;-83
2023/01/31 01:16:31;;;;;;;11.25;3.30;;;4.00;99.90;;;;;;4979691;28;20222;-82
2023/01/31 01:19:00;;;;;;;8.52;2.95;;;4.00;99.90;;;;;;4971531;28;20222;-82
2023/01/31 01:21:30;;;;;;;11.80;2.40;;;4.20;99.90;;;;;;4964361;28;20222;-83
2023/01/31 01:23:59;;;;;;;4.18;2.75;;;4.10;99.90;;;;;;4967519;28;20206;-80
2023/01/31 01:26:29;;;;;;;6.00;1.90;;;4.10;99.90;;;;;;4972735;28;20213;-82
2023/01/31 01:28:58;;;;;;;7.18;2.00;;;4.10;99.90;;;;;;4966747;28;20274;-82
2023/01/31 01:31:28;;;;;;;6.55;2.00;;;4.00;99.90;;;;;;4965020;29;20232;-83
2023/01/31 01:34:02;;;;;;;6.22;1.92;;;4.10;99.90;;;;;;4973066;28;20225;-81
2023/01/31 01:36:32;;;;;;;7.32;2.70;;;4.10;99.90;;;;;;4975076;28;20218;-83
2023/01/31 01:39:01;;;;;;;6.85;2.00;;;4.10;99.90;;;;;;4976363;28;20683;-84
2023/01/31 01:41:32;;;;;;;11.00;3.50;;;4.00;99.90;;;;;;4976599;28;20225;-82
2023/01/31 01:44:00;;;;;;;9.25;3.08;;;4.00;99.90;;;;;;4964285;28;20565;-81
2023/01/31 01:46:43;;;;;;;7.53;2.00;;;3.90;99.90;;;;;;4977744;28;20217;-82
2023/01/31 01:49:26;;;;;;;8.20;1.90;;;4.00;99.90;;;;;;4973178;28;20202;-82
2023/01/31 01:51:56;;;;;;;5.78;3.05;;;4.00;99.90;;;;;;4952649;29;20203;-81
2023/01/31 01:54:35;;;;;;;10.13;1.73;;;4.00;99.90;;;;;;4965998;28;20261;-81
2023/01/31 01:57:04;;;;;;;7.10;1.92;;;4.00;99.90;;;;;;4958546;28;20390;-80
2023/01/31 01:59:40;;;;;;;8.10;1.15;;;4.00;99.90;;;;;;4968364;28;20241;-83
2023/01/31 02:02:07;;;;;;;16.20;2.97;;;4.00;99.90;;;;;;4969470;28;20197;-80
2023/01/31 02:04:37;;;;;;;2.47;1.50;;;4.10;99.90;;;;;;4980305;28;20205;-81
2023/01/31 02:07:06;;;;;;;7.70;2.60;;;4.10;99.90;;;;;;4968917;28;20233;-81
2023/01/31 02:09:49;;;;;;;6.88;1.88;;;4.00;99.90;;;;;;4978780;28;20226;-81
2023/01/31 02:12:16;;;;;;;5.47;1.90;;;3.90;99.90;;;;;;4970468;28;20257;-80
2023/01/31 02:14:46;;;;;;;4.10;1.25;;;4.00;99.90;;;;;;4975735;28;20218;-80
2023/01/31 02:17:14;;;;;;;10.30;2.05;;;3.90;99.90;;;;;;4967120;28;20258;-81
2023/01/31 02:19:56;;;;;;;10.38;1.85;;;4.00;99.90;;;;;;4970740;28;20218;-81
2023/01/31 02:22:38;;;;;;;8.45;2.63;;;4.00;99.90;;;;;;4978218;28;20205;-82
2023/01/31 02:25:36;;;;;;;6.60;1.50;;;4.00;99.90;;;;;;4977276;28;20217;-80
2023/01/31 02:28:36;;;;;;;4.30;1.83;;;3.90;99.90;;;;;;4967898;29;20217;-81
2023/01/31 02:31:35;;;;;;;8.63;2.00;;;3.90;99.90;;;;;;4967047;28;20784;-81
2023/01/31 02:34:22;;;;;;;9.57;3.80;;;3.90;99.90;;;;;;4981107;28;20202;-80
2023/01/31 02:37:15;;;;;;;4.18;2.05;;;3.90;99.90;;;;;;4967275;29;20241;-83
2023/01/31 02:39:48;;;;;;;4.28;1.35;;;3.90;99.90;;;;;;4968630;29;20206;-81
2023/01/31 02:42:29;;;;;;;16.23;2.15;;;3.80;99.90;;;;;;4965743;29;20199;-81
2023/01/31 02:45:19;;;;;;;7.28;2.70;;;3.90;99.90;;;;;;4974264;28;20190;-83
2023/01/31 02:48:17;;;;;;;8.00;2.55;;;3.70;99.90;;;;;;4962262;28;20245;-82
2023/01/31 02:51:12;;;;;;;5.22;1.80;;;3.70;99.90;;;;;;4979241;28;20216;-82
2023/01/31 02:53:44;;;;;;;7.97;2.40;;;3.60;99.90;;;;;;4978525;28;20177;-81
2023/01/31 02:56:25;;;;;;;8.43;2.85;;;3.60;99.90;;;;;;4978131;28;20260;-83
2023/01/31 02:58:58;;;;;;;9.10;2.00;;;3.60;99.90;;;;;;4979489;28;20213;-84
2023/01/31 03:01:29;;;;;;;3.05;1.45;;;3.60;99.90;;;;;;4975482;28;20215;-81
2023/01/31 03:04:00;;;;;;;5.93;2.20;;;3.70;99.90;;;;;;4964245;28;20241;-80
2023/01/31 03:06:27;;;;;;;8.13;2.17;;;3.80;99.90;;;;;;4963517;28;20213;-81
2023/01/31 03:09:01;;;;;;;10.75;2.83;;;3.60;99.90;;;;;;4974970;28;20206;-80
2023/01/31 03:11:45;;;;;;;14.23;2.10;;;3.70;99.90;;;;;;4972477;28;20231;-80
2023/01/31 03:14:45;;;;;;;4.43;2.28;;;3.70;99.90;;;;;;4974040;28;20405;-81
2023/01/31 03:17:32;;;;;;;6.82;2.13;;;3.70;99.90;;;;;;4966681;28;20213;-82
2023/01/31 03:20:35;;;;;;;6.47;3.90;;;3.60;99.90;;;;;;4973930;28;20220;-81
2023/01/31 03:23:13;;;;;;;16.75;2.20;;;3.70;99.90;;;;;;4962177;28;20213;-81
2023/01/31 03:25:40;;;;;;;12.40;1.95;;;3.70;99.90;;;;;;4978494;28;20272;-81
2023/01/31 03:28:13;;;;;;;13.10;2.42;;;3.80;99.90;;;;;;4964854;28;20245;-82
2023/01/31 03:30:55;;;;;;;9.55;2.40;;;3.70;99.90;;;;;;4976994;28;20223;-82
2023/01/31 03:33:28;;;;;;;7.20;2.90;;;3.80;99.90;;;;;;4969040;28;20218;-80
2023/01/31 03:36:07;;;;;;;3.30;1.70;;;3.70;99.90;;;;;;4962350;28;20193;-82
2023/01/31 03:38:40;;;;;;;6.90;2.63;;;3.60;99.90;;;;;;4973469;28;20216;-81
2023/01/31 03:41:21;;;;;;;5.97;2.28;;;3.50;99.90;;;;;;4968598;28;20213;-80
2023/01/31 03:44:05;;;;;;;3.78;1.50;;;3.50;99.90;;;;;;4969824;28;20232;-80
2023/01/31 03:46:41;;;;;;;4.97;1.70;;;3.60;99.90;;;;;;4971837;28;20252;-81
2023/01/31 03:49:12;;;;;;;15.65;2.70;;;3.60;99.90;;;;;;4965896;28;20237;-81
2023/01/31 03:51:45;;;;;;;8.75;2.60;;;3.60;99.90;;;;;;4972697;28;20240;-82
2023/01/31 03:54:24;;;;;;;8.32;3.42;;;3.70;99.90;;;;;;4961827;28;20341;-83
2023/01/31 03:57:03;;;;;;;7.32;2.03;;;3.70;99.90;;;;;;4971577;28;20249;-82
2023/01/31 03:59:35;;;;;;;8.30;1.75;;;3.70;99.90;;;;;;4974176;28;20273;-81
2023/01/31 04:02:07;;;;;;;2.78;1.95;;;3.70;99.90;;;;;;4969714;28;20213;-84
2023/01/31 04:04:49;;;;;;;4.55;2.15;;;3.60;99.90;;;;;;4956227;28;20227;-82
2023/01/31 04:07:16;;;;;;;4.68;2.05;;;3.70;99.90;;;;;;4966268;28;20203;-82
2023/01/31 04:09:44;;;;;;;7.30;2.20;;;3.60;99.90;;;;;;4968341;28;20530;-83
2023/01/31 04:12:14;;;;;;;3.85;1.20;;;3.50;99.90;;;;;;4968822;28;20244;-82
2023/01/31 04:14:41;;;;;;;7.95;2.28;;;3.50;99.90;;;;;;4971656;28;20224;-82
2023/01/31 04:17:08;;;;;;;7.07;4.13;;;3.60;99.90;;;;;;4974233;28;20502;-82
2023/01/31 04:19:35;;;;;;;6.70;1.50;;;3.60;99.90;;;;;;4963277;28;20227;-82
2023/01/31 04:22:02;;;;;;;4.20;2.33;;;3.60;99.90;;;;;;4967052;28;20410;-83
2023/01/31 04:24:29;;;;;;;16.25;3.17;;;3.50;99.90;;;;;;4966164;28;20206;-82
2023/01/31 04:26:56;;;;;;;3.60;2.03;;;3.60;99.90;;;;;;4965217;28;20206;-81
2023/01/31 04:29:23;;;;;;;4.95;2.92;;;3.60;99.90;;;;;;4962194;28;20273;-82
2023/01/31 04:31:51;;;;;;;4.75;1.77;;;3.50;99.90;;;;;;4963815;28;20242;-81
2023/01/31 04:34:17;;;;;;;12.38;2.75;;;3.50;99.90;;;;;;4959890;28;20230;-81
2023/01/31 04:36:44;;;;;;;8.23;1.80;;;3.50;99.90;;;;;;4972393;28;20217;-82
2023/01/31 04:39:13;;;;;;;11.27;2.33;;;3.50;99.90;;;;;;4975068;28;20201;-81
2023/01/31 04:41:40;;;;;;;8.55;3.55;;;3.50;99.90;;;;;;4979696;28;20212;-82
2023/01/31 04:44:07;;;;;;;5.63;1.60;;;3.50;99.90;;;;;;4972318;28;20232;-82
2023/01/31 04:46:33;;;;;;;6.82;1.92;;;3.30;99.90;;;;;;4970083;28;20277;-80
2023/01/31 04:49:00;;;;;;;9.40;2.55;;;3.30;99.90;;;;;;4966798;29;20214;-80
2023/01/31 04:51:28;;;;;;;3.28;2.10;;;3.40;99.90;;;;;;4971527;29;20261;-81
2023/01/31 04:53:55;;;;;;;8.60;1.90;;;3.40;99.90;;;;;;4975427;28;20414;-83
2023/01/31 04:56:21;;;;;;;5.47;1.70;;;3.50;99.90;;;;;;4968262;28;20217;-80
2023/01/31 04:58:49;;;;;;;7.68;3.38;;;3.30;99.90;;;;;;4974142;28;20237;-81
2023/01/31 05:01:16;;;;;;;13.13;2.45;;;3.30;99.90;;;;;;4981599;28;20198;-82
2023/01/31 05:03:43;;;;;;;7.80;2.08;;;3.30;99.90;;;;;;4991330;28;20256;-81
2023/01/31 05:06:10;;;;;;;5.95;1.95;;;3.30;99.90;;;;;;4979640;28;20244;-85
2023/01/31 05:08:37;;;;;;;7.20;3.80;;;3.20;99.90;;;;;;4978577;28;20194;-82
2023/01/31 05:11:05;;;;;;;10.30;3.15;;;3.10;99.90;;;;;;5000716;28;20217;-85
2023/01/31 05:13:37;;;;;;;10.35;2.25;;;3.20;99.90;;;;;;5000158;28;20205;-86
2023/01/31 05:16:09;;;;;;;7.57;3.00;;;3.10;99.90;;;;;;4993664;28;20236;-84
2023/01/31 05:18:38;;;;;;;14.60;3.15;;;3.20;99.90;;;;;;4980504;28;20202;-84
2023/01/31 05:21:06;;;;;;;8.82;3.10;;;3.10;99.90;;;;;;4980103;28;20217;-84
2023/01/31 05:23:34;;;;;;;12.98;5.53;;;3.00;99.90;;;;;;4986590;28;20215;-86
2023/01/31 05:26:02;;;;;;;9.27;3.55;;;3.20;99.90;;;;;;4983646;28;20200;-87
2023/01/31 05:28:29;;;;;;;8.82;2.42;;;3.20;99.90;;;;;;4982606;28;20245;-85
2023/01/31 05:31:03;;;;;;;5.93;2.97;;;3.10;99.90;;;;;;4986146;28;20241;-86
2023/01/31 05:33:30;;;;;;;10.27;2.08;;;3.10;99.90;;;;;;4976055;28;20241;-85
2023/01/31 05:35:58;;;;;;;10.57;2.65;;;3.10;99.90;;;;;;4984784;28;20223;-86
2023/01/31 05:38:26;;;;;;;5.80;2.92;;;3.20;99.90;;;;;;4972206;28;20210;-86
2023/01/31 05:40:53;;;;;;;9.95;4.15;;;3.10;99.90;;;;;;4981070;28;20205;-84
2023/01/31 05:43:20;;;;;;;7.60;3.03;;;3.10;99.90;;;;;;4969182;28;20235;-83
2023/01/31 05:45:48;;;;;;;6.50;2.58;;;3.10;99.90;;;;;;4967473;28;20247;-83
2023/01/31 05:48:15;;;;;;;10.18;2.75;;;3.10;99.90;;;;;;4969144;28;20210;-84
2023/01/31 05:50:43;;;;;;;13.20;2.80;;;3.10;99.90;;;;;;4969765;28;20240;-82
2023/01/31 05:53:10;;;;;;;12.48;2.75;;;3.10;99.90;;;;;;4972655;28;20212;-83
2023/01/31 05:55:37;;;;;;;10.63;2.65;;;3.20;99.90;;;;;;4974375;28;20228;-83
2023/01/31 05:58:04;;;;;;;9.43;2.22;;;3.10;99.90;;;;;;4960420;28;20217;-80
2023/01/31 06:00:31;;;;;;;4.63;2.25;;;3.10;99.90;;;;;;4967544;28;20253;-80
2023/01/31 06:02:58;;;;;;;4.22;2.33;;;3.20;99.90;;;;;;4968120;28;20204;-81
2023/01/31 06:05:27;;;;;;;14.48;3.47;;;3.20;99.90;;;;;;4963612;28;20286;-80
2023/01/31 06:07:54;;;;;;;12.93;3.70;;;3.20;99.90;;;;;;4966724;28;20212;-79
2023/01/31 06:10:22;;;;;;;10.50;5.85;;;3.20;99.90;;;;;;4961582;28;20268;-80
2023/01/31 06:12:49;;;;;;;5.35;3.30;;;3.20;99.90;;;;;;4958835;28;20208;-80
2023/01/31 06:15:16;;;;;;;7.93;2.88;;;3.20;99.90;;;;;;4965954;28;20386;-82
2023/01/31 06:17:43;;;;;;;9.38;2.95;;;3.20;99.90;;;;;;4956826;28;20209;-81
2023/01/31 06:20:10;;;;;;;9.25;3.17;;;3.20;99.90;;;;;;4970552;28;20209;-81
2023/01/31 06:22:37;;;;;;;6.20;2.50;;;3.20;99.90;;;;;;4962234;28;20217;-83
2023/01/31 06:25:05;;;;;;;7.57;3.28;;;3.10;99.90;;;;;;4966869;28;20221;-81
2023/01/31 06:27:33;;;;;;;4.95;1.65;;;3.20;99.90;;;;;;4964341;28;20297;-81
2023/01/31 06:30:00;;;;;;;15.23;3.08;;;3.20;99.90;;;;;;4955627;28;20214;-81
2023/01/31 06:32:27;;;;;;;4.82;1.75;;;3.20;99.90;;;;;;4955191;28;20303;-80
2023/01/31 06:34:54;;;;;;;9.98;3.38;;;3.20;99.90;;;;;;4961324;28;20208;-81
2023/01/31 06:37:21;;;;;;;12.70;1.98;;;3.10;99.90;;;;;;4963904;28;20525;-80
2023/01/31 06:39:48;;;;;;;6.53;3.20;;;3.30;99.90;;;;;;4966551;28;20265;-79
2023/01/31 06:42:15;;;;;;;5.65;3.10;;;3.20;99.90;;;;;;4965814;28;20488;-82
2023/01/31 06:44:43;;;;;;;9.45;2.70;;;3.20;99.90;;;;;;4968721;28;20244;-81
2023/01/31 06:47:11;;;;;;;14.85;2.40;;;3.20;99.90;;;;;;4962081;28;20260;-82
2023/01/31 06:49:38;;;;;;;5.07;2.00;;;3.10;99.90;;;;;;4960754;28;20294;-83
2023/01/31 06:52:06;;;;;;;4.57;2.50;;;3.10;99.90;;;;;;4975835;28;20248;-81
2023/01/31 06:54:33;;;;;;;7.40;2.47;;;3.20;99.90;;;;;;4979106;28;20221;-82
2023/01/31 06:57:00;;;;;;;9.18;3.08;;;3.20;99.90;;;;;;4971063;28;20338;-83
2023/01/31 06:59:26;;;;;;;7.28;2.42;;;3.10;99.90;;;;;;4987594;28;20192;-81
2023/01/31 07:01:53;;;;;;;11.05;3.47;;;3.10;99.90;;;;;;4977908;28;20217;-80
2023/01/31 07:04:20;;;;;;;19.30;5.57;;;3.10;99.90;;;;;;4960635;28;20218;-80
2023/01/31 07:06:47;;;;;;;6.82;3.25;;;3.20;99.90;;;;;;4972224;28;20490;-80
2023/01/31 07:09:14;;;;;;;6.03;3.50;;;3.20;99.90;;;;;;4959944;28;20213;-81
2023/01/31 07:11:41;;;;;;;7.50;2.08;;;3.20;99.90;;;;;;4964184;28;20245;-81
2023/01/31 07:14:08;;;;;;;6.32;3.08;;;3.20;99.90;;;;;;4960491;28;20212;-81
2023/01/31 07:16:37;;;;;;;9.65;3.95;;;3.10;99.90;;;;;;4967693;28;20213;-82
2023/01/31 07:19:04;;;;;;;10.05;2.63;;;3.20;99.90;;;;;;4959554;28;20286;-80
2023/01/31 07:21:32;;;;;;;10.23;3.50;;;3.20;99.90;;;;;;4965091;28;20253;-81
2023/01/31 07:23:59;;;;;;;17.00;3.00;;;3.10;99.90;;;;;;4971744;28;20213;-81
2023/01/31 07:26:26;;;;;;;5.85;2.90;;;3.10;99.90;;;;;;4962897;28;20209;-80
2023/01/31 07:28:53;;;;;;;8.48;3.20;;;3.10;99.90;;;;;;4954492;28;20236;-80
2023/01/31 07:31:20;;;;;;;10.68;3.90;;;3.10;99.90;;;;;;4963178;28;20283;-80
2023/01/31 07:33:48;;;;;;;16.88;2.92;;;3.00;99.90;;;;;;4961530;28;20196;-82
2023/01/31 07:36:20;;;;;;;8.98;3.25;;;2.90;99.90;;;;;;4979673;28;20202;-83
2023/01/31 07:38:47;;;;;;;6.72;3.13;;;2.80;99.90;;;;;;4958676;28;20213;-82
2023/01/31 07:41:14;;;;;;;8.57;3.45;;;2.80;99.90;;;;;;4962284;28;20208;-82
2023/01/31 07:43:41;;;;;;;6.50;3.15;;;2.90;99.90;;;;;;4970233;28;20613;-81
2023/01/31 07:46:09;;;;;;;14.15;3.20;;;3.00;99.90;;;;;;4974190;28;20505;-80
2023/01/31 07:48:37;;;;;;;8.23;2.92;;;3.20;99.90;;;;;;4968442;28;20582;-79
2023/01/31 07:51:05;;;;;;;8.75;2.63;;;3.20;99.90;;;;;;4965981;28;20236;-79
2023/01/31 07:53:34;;;;;;;9.13;4.07;;;3.40;99.90;;;;;;4968375;28;20217;-81
2023/01/31 07:56:17;;;;;;;3.08;2.00;;;3.40;99.90;;;;;;4963755;28;20213;-79
2023/01/31 07:58:47;;;;;;;9.77;2.80;;;3.50;99.90;;;;;;4956994;28;20268;-81
2023/01/31 08:04:10;;;;;;;7.43;2.08;;;3.50;99.90;;;;;;4959240;28;20213;-81
2023/01/31 08:06:49;;;;;;;5.78;2.47;;;3.40;99.90;;;;;;4981918;28;20518;-80
2023/01/31 08:09:16;;;;;;;5.95;2.20;;;3.50;99.90;;;;;;4956129;28;20526;-80
2023/01/31 08:11:44;;;;;;;15.43;2.05;;;4.20;99.90;;;;;;4974925;28;20232;-80
2023/01/31 08:14:11;;;;;;;8.23;2.38;;;4.50;99.90;;;;;;4966497;28;20210;-80
2023/01/31 08:16:38;;;;;;;7.93;2.10;;;4.50;99.90;;;;;;4962952;28;20210;-82
2023/01/31 08:19:05;;;;;;;5.95;1.80;;;4.30;99.90;;;;;;4968231;28;20236;-81
2023/01/31 08:21:32;;;;;;;6.32;2.13;;;4.20;99.90;;;;;;4954846;28;20221;-80
2023/01/31 08:24:00;;;;;;;11.35;2.28;;;4.00;99.90;;;;;;4974642;28;20253;-80
2023/01/31 08:26:26;;;;;;;11.38;2.38;;;3.90;99.90;;;;;;4962851;28;20217;-81
2023/01/31 08:28:54;;;;;;;6.80;2.38;;;3.90;99.90;;;;;;4957562;28;20200;-81
2023/01/31 08:31:23;;;;;;;4.88;2.08;;;4.00;99.90;;;;;;4960808;28;20248;-81
2023/01/31 08:33:52;;;;;;;9.80;2.65;;;4.10;99.90;;;;;;4971507;28;20213;-82
2023/01/31 08:36:19;;;;;;;3.05;1.85;;;4.20;99.90;;;;;;4966587;28;20242;-80
2023/01/31 08:38:46;;;;;;;8.57;2.05;;;4.20;99.90;;;;;;4965554;28;20548;-81
2023/01/31 08:41:15;;;;;;;7.72;1.50;;;4.20;99.90;;;;;;4961431;28;20274;-80
2023/01/31 08:43:43;;;;;;;9.88;1.52;;;4.20;99.90;;;;;;4965860;28;20209;-81
2023/01/31 08:46:29;;;;;;;3.08;2.00;;;4.20;99.90;;;;;;4965131;28;20214;-81
2023/01/31 08:48:58;;;;;;;4.38;2.00;;;4.30;99.90;;;;;;4973530;28;20206;-80
2023/01/31 08:51:25;;;;;;;10.27;2.08;;;4.50;99.90;;;;;;4972548;28;20249;-80
2023/01/31 08:53:53;;;;;;;5.72;2.38;;;4.60;99.90;;;;;;4965845;28;20571;-79
2023/01/31 08:56:24;;;;;;;6.45;2.35;;;4.80;99.90;;;;;;4958771;28;20422;-80
2023/01/31 08:58:53;;;;;;;4.65;2.38;;;5.10;99.90;;;;;;4968658;28;20450;-79
2023/01/31 09:01:20;;;;;;;4.05;1.98;;;5.20;99.90;;;;;;4975073;28;20277;-79
2023/01/31 09:03:49;;;;;;;3.30;1.92;;;5.40;99.90;;;;;;4965525;28;20202;-78
2023/01/31 09:06:19;;;;;;;6.65;2.28;;;5.20;99.90;;;;;;4967812;28;20218;-81
2023/01/31 09:08:47;;;;;;;2.03;1.85;;;5.50;99.90;;;;;;4969404;28;20195;-81
2023/01/31 09:11:16;;;;;;;7.88;1.83;;;5.40;99.90;;;;;;4968238;28;20507;-79
2023/01/31 09:13:44;;;;;;;2.38;1.67;;;5.40;99.90;;;;;;4968032;28;20209;-79
2023/01/31 09:16:13;;;;;;;5.40;2.08;;;5.40;99.90;;;;;;4961616;28;20218;-79
2023/01/31 09:18:40;;;;;;;4.53;1.95;;;5.80;99.90;;;;;;4968643;28;20210;-80
2023/01/31 09:21:18;;;;;;;7.63;2.13;;;6.10;99.90;;;;;;4966965;28;20518;-80
2023/01/31 09:23:47;;;;;;;10.15;3.38;;;6.00;99.90;;;;;;4968923;28;20774;-81
2023/01/31 09:26:15;;;;;;;6.53;2.78;;;6.20;99.90;;;;;;4962234;28;20208;-80
2023/01/31 09:28:42;;;;;;;7.35;2.38;;;6.20;99.90;;;;;;4970904;28;20207;-80
2023/01/31 09:31:15;;;;;;;2.22;1.98;;;6.20;99.90;;;;;;4963013;28;20532;-81
2023/01/31 09:33:42;;;;;;;10.55;2.70;;;6.50;99.90;;;;;;4971181;28;20232;-80
2023/01/31 09:36:18;;;;;;;8.48;2.33;;;6.60;99.90;;;;;;4983170;28;20263;-80
2023/01/31 09:38:45;;;;;;;4.35;2.25;;;6.20;99.90;;;;;;4971302;28;20201;-82
2023/01/31 09:41:22;;;;;;;5.25;1.52;;;6.30;99.90;;;;;;4982155;28;20527;-78
2023/01/31 09:44:01;;;;;;;8.52;2.60;;;6.30;99.90;;;;;;4964062;28;20379;-79
2023/01/31 09:46:34;;;;;;;6.88;1.70;;;6.30;99.90;;;;;;4971240;28;20253;-81
2023/01/31 09:49:04;;;;;;;7.47;2.97;;;6.20;99.90;;;;;;4960477;28;20374;-80
2023/01/31 09:51:33;;;;;;;11.68;2.10;;;6.10;99.90;;;;;;4968444;28;20580;-81
2023/01/31 09:54:02;;;;;;;8.18;2.40;;;5.90;99.90;;;;;;4967736;28;20211;-80
2023/01/31 09:56:44;;;;;;;3.13;1.83;;;5.80;99.90;;;;;;4960645;28;20217;-80
2023/01/31 09:59:29;;;;;;;7.15;2.42;;;5.50;99.90;;;;;;4949344;29;20203;-81
2023/01/31 10:02:21;;;;;;;10.73;2.00;;;5.20;99.90;;;;;;4965667;28;20217;-81
2023/01/31 10:04:57;;;;;;;1.70;1.40;;;5.10;99.90;;;;;;4964464;28;20206;-81
2023/01/31 10:07:32;;;;;;;12.50;1.80;;;5.10;99.90;;;;;;4973191;28;20203;-81
2023/01/31 10:10:21;;;;;;;3.67;2.30;;;5.10;99.90;;;;;;4966850;28;20210;-81
2023/01/31 10:12:56;;;;;;;6.45;2.10;;;5.20;99.90;;;;;;4953868;29;20230;-81
2023/01/31 10:15:31;;;;;;;5.50;2.05;;;5.30;99.90;;;;;;4962776;28;20294;-80
2023/01/31 10:18:04;;;;;;;10.30;1.83;;;5.40;99.90;;;;;;4971647;28;20420;-81
2023/01/31 10:20:40;;;;;;;4.55;2.00;;;5.60;99.90;;;;;;4962601;28;20407;-81
2023/01/31 10:23:19;;;;;;;3.45;2.05;;;5.50;99.90;;;;;;4958893;29;20450;-81
2023/01/31 10:25:56;;;;;;;8.40;2.42;;;5.50;99.90;;;;;;4965055;28;20263;-81
2023/01/31 10:28:27;;;;;;;4.28;2.17;;;5.40;99.90;;;;;;4961897;28;20206;-81
2023/01/31 10:31:05;;;;;;;3.67;1.88;;;5.30;99.90;;;;;;4960570;28;20240;-80
2023/01/31 10:33:56;;;;;;;6.60;2.28;;;5.40;99.90;;;;;;4960569;28;20223;-80
2023/01/31 10:36:35;;;;;;;5.20;1.98;;;5.60;99.90;;;;;;4962707;28;20488;-80
2023/01/31 10:39:17;;;;;;;5.82;2.13;;;5.60;99.90;;;;;;4965527;28;20254;-80
2023/01/31 10:41:53;;;;;;;8.75;3.00;;;5.70;99.90;;;;;;4957735;28;20261;-82
2023/01/31 10:44:40;;;;;;;9.30;2.88;;;5.80;99.90;;;;;;4971103;28;20214;-83
2023/01/31 10:47:15;;;;;;;9.40;2.85;;;5.70;99.90;;;;;;4979533;28;20224;-81
2023/01/31 10:49:45;;;;;;;6.63;2.28;;;5.70;99.90;;;;;;4973508;28;20194;-81
2023/01/31 10:52:40;;;;;;;4.97;2.70;;;5.80;99.90;;;;;;4959669;28;20238;-82
2023/01/31 10:55:32;;;;;;;6.03;2.90;;;5.90;99.90;;;;;;4972477;28;20206;-79
2023/01/31 10:58:00;;;;;;;9.45;2.72;;;6.10;99.90;;;;;;4979359;28;20435;-81
2023/01/31 11:00:31;;;;;;;2.53;2.00;;;6.10;99.90;;;;;;4965746;28;20273;-80
2023/01/31 11:02:58;;;;;;;8.23;2.35;;;6.20;99.90;;;;;;4965606;28;20200;-81
2023/01/31 11:05:28;;;;;;;7.00;3.08;;;6.30;99.90;;;;;;4970250;28;20237;-79
2023/01/31 11:07:57;;;;;;;8.65;2.40;;;6.40;99.90;;;;;;4968547;28;20197;-80
2023/01/31 11:10:30;;;;;;;11.32;2.45;;;6.80;99.90;;;;;;4961976;28;20336;-80
2023/01/31 11:13:08;;;;;;;8.93;2.20;;;6.90;99.90;;;;;;4965360;28;20230;-80
2023/01/31 11:15:38;;;;;;;4.47;2.63;;;6.80;99.90;;;;;;4964097;28;20452;-81
2023/01/31 11:18:06;;;;;;;5.30;2.63;;;6.60;99.90;;;;;;4973819;28;20277;-80
2023/01/31 11:20:45;;;;;;;5.70;2.65;;;6.60;99.90;;;;;;4961454;28;20206;-82
2023/01/31 11:23:16;;;;;;;5.30;2.33;;;6.30;99.90;;;;;;4957975;28;20218;-80
2023/01/31 11:25:51;;;;;;;4.80;2.70;;;6.30;99.90;;;;;;4960285;28;20202;-79
2023/01/31 11:28:20;;;;;;;3.50;2.45;;;6.20;99.90;;;;;;4962370;28;20436;-79
2023/01/31 11:30:50;;;;;;;1.95;1.45;;;6.10;99.90;;;;;;4966546;28;20202;-81
2023/01/31 11:33:57;;;;;;;5.38;1.95;;;6.20;99.90;;;;;;4961635;28;20230;-81
2023/01/31 11:36:25;;;;;;;6.70;2.60;;;6.30;99.90;;;;;;4954145;28;20447;-80
2023/01/31 11:38:53;;;;;;;5.53;2.28;;;6.40;99.90;;;;;;4961311;28;20211;-81
2023/01/31 11:41:36;;;;;;;12.80;3.70;;;6.60;99.90;;;;;;4958872;28;20211;-80
2023/01/31 11:44:16;;;;;;;6.53;2.10;;;6.60;99.90;;;;;;4961138;28;20273;-80
2023/01/31 11:46:48;;;;;;;3.80;2.20;;;6.30;99.90;;;;;;4961700;28;20495;-80
2023/01/31 11:49:40;;;;;;;4.38;1.92;;;6.20;99.90;;;;;;4964630;28;20225;-80
2023/01/31 11:52:23;;;;;;;5.03;2.03;;;5.90;99.90;;;;;;4958779;28;20294;-79
2023/01/31 11:54:55;;;;;;;6.45;2.05;;;5.70;99.90;;;;;;4952794;29;20538;-82
2023/01/31 11:57:27;;;;;;;3.33;1.95;;;5.70;99.90;;;;;;4963624;28;20210;-79
2023/01/31 11:59:56;;;;;;;4.15;1.88;;;5.70;99.90;;;;;;4956467;28;20209;-80
2023/01/31 12:02:30;;;;;;;3.63;1.30;;;5.50;99.90;;;;;;4959051;28;20219;-81
2023/01/31 12:04:57;;;;;;;3.80;1.35;;;5.60;99.90;;;;;;4970305;28;20213;-80
2023/01/31 12:07:29;;;;;;;5.32;1.70;;;5.60;99.90;;;;;;4970815;28;20527;-81
2023/01/31 12:09:57;;;;;;;3.97;2.20;;;5.50;99.90;;;;;;4964433;28;20218;-82
2023/01/31 12:12:32;;;;;;;2.25;1.85;;;5.30;99.90;;;;;;4968818;28;20488;-80
2023/01/31 12:15:02;;;;;;;4.85;2.20;;;5.00;99.90;;;;;;4973912;28;20248;-81
2023/01/31 12:17:35;;;;;;;5.85;2.20;;;4.90;99.90;;;;;;4976609;28;20214;-82
2023/01/31 12:20:09;;;;;;;2.40;2.08;;;4.70;99.90;;;;;;4977493;28;20226;-81
2023/01/31 12:23:15;;;;;;;2.88;2.58;;;4.80;99.90;;;;;;4971911;28;20277;-80
2023/01/31 12:26:08;;;;;;;11.82;2.75;;;5.10;99.90;;;;;;4962780;28;20214;-82
2023/01/31 12:28:49;;;;;;;2.50;2.30;;;5.30;99.90;;;;;;4974087;28;20205;-80
2023/01/31 12:31:30;;;;;;;8.90;3.03;;;5.50;99.90;;;;;;4967621;28;20533;-82
2023/01/31 12:34:06;;;;;;;4.22;2.40;;;5.70;99.90;;;;;;4978191;28;20535;-82
2023/01/31 12:37:15;;;;;;;3.05;1.95;;;5.80;99.90;;;;;;4969061;28;20206;-82
2023/01/31 12:40:20;;;;;;;2.00;1.80;;;5.80;99.90;;;;;;4962817;28;20380;-80
2023/01/31 12:43:00;;;;;;;3.45;2.20;;;5.80;99.90;;;;;;4964465;28;20199;-82
2023/01/31 12:45:52;;;;;;;5.13;2.53;;;5.80;99.90;;;;;;4958179;29;20215;-82
2023/01/31 12:48:42;;;;;;;9.00;2.70;;;5.80;99.90;;;;;;4959737;28;20294;-81
2023/01/31 12:51:34;;;;;;;3.72;1.98;;;5.70;99.90;;;;;;4959959;29;20313;-82
2023/01/31 12:54:30;;;;;;;18.00;4.45;;;5.60;99.90;;;;;;4961502;28;20219;-82
2023/01/31 12:56:57;;;;;;;3.70;2.83;;;5.70;99.90;;;;;;4957823;28;20491;-83
2023/01/31 12:59:43;;;;;;;11.98;3.17;;;5.60;99.90;;;;;;4972203;28;20234;-80
2023/01/31 13:02:34;;;;;;;10.65;3.90;;;5.60;99.90;;;;;;4967664;28;20237;-83
2023/01/31 13:05:09;;;;;;;2.90;2.70;;;5.50;99.90;;;;;;4959013;28;20217;-81
2023/01/31 13:07:45;;;;;;;5.97;2.45;;;5.50;99.90;;;;;;4971923;28;20530;-82
2023/01/31 13:10:39;;;;;;;6.15;3.22;;;5.40;99.90;;;;;;4982983;28;20276;-83
2023/01/31 13:13:16;;;;;;;5.65;2.75;;;5.30;99.90;;;;;;4964750;29;20530;-83
2023/01/31 13:15:50;;;;;;;6.28;3.00;;;5.10;99.90;;;;;;4966087;28;20206;-80
2023/01/31 13:18:18;;;;;;;4.20;2.58;;;5.00;99.90;;;;;;4963069;29;20309;-82
2023/01/31 13:20:49;;;;;;;9.98;2.83;;;4.90;99.90;;;;;;4970455;28;20423;-82
2023/01/31 13:23:22;;;;;;;10.73;2.97;;;5.00;99.90;;;;;;4966374;29;20211;-83
2023/01/31 13:25:58;;;;;;;14.40;3.67;;;5.00;99.90;;;;;;4980519;28;20175;-84
2023/01/31 13:28:31;;;;;;;4.25;3.45;;;5.10;99.90;;;;;;4982197;28;20270;-84